Time;durP1;ratioP1;P1;durP2;ratioP2;P2;SDS_P1;SDS_P2;PMS_P1;PMS_P2;Temp;Humidity;BMP_temperature;BMP_pressure;BME280_temperature;BME280_humidity;BME280_pressure;Samples;Min_cycle;Max_cycle;Signal;HPM_P1;HPM_P2
2022/01/18 05:41:42;;;;;;;0.75;0.37;;;;;;;-3.86;100.00;98935.59;1659132;83;21654;-37
2022/01/18 05:44:09;;;;;;;0.50;0.40;;;;;;;-4.05;100.00;98938.77;1706570;82;21041;-43
2022/01/18 05:46:35;;;;;;;1.00;0.60;;;;;;;-4.07;100.00;98953.56;1722080;82;21596;-36
2022/01/18 05:49:02;;;;;;;1.12;0.60;;;;;;;-4.08;100.00;98967.16;1711133;82;21476;-37
2022/01/18 05:51:29;;;;;;;5.05;1.27;;;;;;;-4.06;99.74;98961.68;1717193;82;21144;-38
2022/01/18 05:53:56;;;;;;;1.75;0.82;;;;;;;-4.05;100.00;98954.50;1707945;82;21013;-37
2022/01/18 05:56:23;;;;;;;1.98;0.57;;;;;;;-4.04;97.23;98954.97;1702844;83;21545;-37
2022/01/18 05:58:50;;;;;;;3.83;0.82;;;;;;;-4.00;95.35;98961.94;1696862;82;20994;-38
2022/01/18 06:01:32;;;;;;;4.80;0.50;;;;;;;-3.95;94.63;98958.24;1706040;82;20986;-37
2022/01/18 06:09:09;;;;;;;0.72;0.47;;;;;;;-3.85;91.29;98976.52;1702682;82;20992;-37
2022/01/18 06:11:36;;;;;;;1.15;0.70;;;;;;;-3.81;90.17;98989.02;1707551;82;21116;-37
2022/01/18 06:14:03;;;;;;;0.55;0.55;;;;;;;-3.79;88.68;98988.24;1701859;82;20981;-37
2022/01/18 06:16:30;;;;;;;1.15;0.60;;;;;;;-3.74;89.14;98999.92;1688558;82;21167;-37
2022/01/18 06:18:57;;;;;;;1.45;0.80;;;;;;;-3.76;85.67;98997.72;1684585;82;21480;-37
2022/01/18 06:21:25;;;;;;;2.42;0.70;;;;;;;-3.79;84.49;99009.97;1682389;83;21549;-43
2022/01/18 06:23:52;;;;;;;5.40;0.53;;;;;;;-3.84;83.55;99020.43;1684746;82;21000;-34
2022/01/18 06:26:19;;;;;;;1.55;0.90;;;;;;;-3.90;82.78;99025.31;1708750;82;21017;-42
2022/01/18 06:28:46;;;;;;;0.82;0.57;;;;;;;-3.94;82.00;99045.20;1684577;83;21025;-42
2022/01/18 06:31:13;;;;;;;0.68;0.40;;;;;;;-3.97;80.79;99045.48;1675551;83;20981;-43
2022/01/18 06:33:40;;;;;;;2.40;0.40;;;;;;;-4.02;78.36;99073.41;1660396;85;21956;-43
2022/01/18 06:36:07;;;;;;;0.40;0.40;;;;;;;-4.06;77.84;99053.66;1650011;85;21027;-43
2022/01/18 06:38:36;;;;;;;1.50;0.37;;;;;;;-4.08;78.02;99065.52;1664991;85;21033;-43
2022/01/18 06:41:04;;;;;;;4.83;0.85;;;;;;;-4.13;77.00;99088.73;1657490;84;21013;-36
2022/01/18 06:43:31;;;;;;;3.42;0.80;;;;;;;-4.17;77.48;99087.77;1664045;84;21781;-43
2022/01/18 06:45:58;;;;;;;2.60;0.65;;;;;;;-4.18;77.42;99084.71;1651546;84;21423;-44
2022/01/18 06:48:25;;;;;;;1.35;0.85;;;;;;;-4.20;77.22;99082.92;1705715;82;21423;-43
2022/01/18 06:50:52;;;;;;;4.83;1.25;;;;;;;-4.20;77.19;99091.87;1707010;82;21339;-43
2022/01/18 06:53:19;;;;;;;0.75;0.50;;;;;;;-4.20;77.15;99114.86;1706206;82;21600;-37
2022/01/18 06:55:51;;;;;;;4.53;0.60;;;;;;;-4.20;76.57;99114.45;1709332;82;20985;-44
2022/01/18 06:58:16;;;;;;;1.90;0.65;;;;;;;-4.18;76.27;99120.48;1709961;82;21052;-43
2022/01/18 07:00:44;;;;;;;5.05;0.70;;;;;;;-4.16;76.02;99119.28;1703073;82;21528;-43
2022/01/18 07:03:12;;;;;;;2.90;0.70;;;;;;;-4.15;75.68;99127.00;1708604;82;21584;-41
2022/01/18 07:05:39;;;;;;;1.72;0.72;;;;;;;-4.11;75.96;99135.67;1710147;82;21402;-42
2022/01/18 07:08:09;;;;;;;0.68;0.53;;;;;;;-4.07;75.15;99143.90;1713014;82;21596;-36
2022/01/18 07:10:37;;;;;;;3.15;0.80;;;;;;;-4.05;74.37;99144.45;1665035;82;21548;-35
2022/01/18 07:13:05;;;;;;;0.60;0.42;;;;;;;-4.03;74.95;99162.37;1728080;82;21402;-36
2022/01/18 07:15:32;;;;;;;0.53;0.30;;;;;;;-4.03;74.32;99168.36;1712052;82;20974;-36
2022/01/18 07:17:59;;;;;;;3.90;1.37;;;;;;;-4.01;74.18;99160.34;1702618;82;21523;-35
2022/01/18 07:20:26;;;;;;;5.42;0.60;;;;;;;-4.00;75.56;99182.96;1708186;82;21017;-36
2022/01/18 07:22:55;;;;;;;1.20;0.78;;;;;;;-3.96;77.11;99184.80;1711576;82;21017;-36
2022/01/18 07:25:25;;;;;;;0.75;0.53;;;;;;;-3.88;79.17;99188.96;1709079;82;21045;-42
2022/01/18 07:27:55;;;;;;;1.75;0.53;;;;;;;-3.83;80.32;99189.58;1699655;82;21068;-35
2022/01/18 07:30:22;;;;;;;2.95;1.62;;;;;;;-3.82;82.10;99192.63;1714823;82;21049;-36
2022/01/18 07:32:51;;;;;;;1.95;1.07;;;;;;;-3.81;83.52;99182.86;1706947;82;21073;-36
2022/01/18 07:35:19;;;;;;;3.25;1.22;;;;;;;-3.79;84.51;99174.84;1708552;82;21051;-36
2022/01/18 07:37:46;;;;;;;1.55;0.70;;;;;;;-3.77;84.44;99184.73;1654046;82;21501;-36
2022/01/18 07:40:16;;;;;;;4.12;1.32;;;;;;;-3.76;84.18;99188.16;1709506;82;21037;-43
2022/01/18 07:42:44;;;;;;;2.62;0.93;;;;;;;-3.74;83.75;99200.59;1696769;81;21438;-43
2022/01/18 07:45:10;;;;;;;0.40;0.40;;;;;;;-3.67;84.26;99197.45;1719487;80;21028;-37
2022/01/18 07:47:37;;;;;;;2.70;1.32;;;;;;;-3.61;82.57;99210.88;1715576;81;21044;-37
2022/01/18 07:50:05;;;;;;;1.57;0.90;;;;;;;-3.60;82.37;99218.59;1725040;81;20985;-37
2022/01/18 07:52:35;;;;;;;1.50;1.07;;;;;;;-3.59;82.27;99227.17;1720762;81;21332;-37
2022/01/18 07:55:06;;;;;;;1.90;0.85;;;;;;;-3.58;82.56;99222.52;1712680;81;21000;-43
2022/01/18 07:57:33;;;;;;;0.95;0.70;;;;;;;-3.55;82.48;99229.88;1689121;83;21711;-43
2022/01/18 08:00:00;;;;;;;4.78;1.30;;;;;;;-3.54;81.57;99217.59;1725645;81;21512;-37
2022/01/18 08:02:27;;;;;;;2.25;0.90;;;;;;;-3.54;81.30;99227.81;1720325;81;21052;-43
2022/01/18 08:04:54;;;;;;;2.77;0.78;;;;;;;-3.57;82.56;99225.13;1716619;82;21133;-43
2022/01/18 08:07:20;;;;;;;4.75;0.90;;;;;;;-3.63;83.37;99233.84;1729661;81;21072;-43
2022/01/18 08:09:47;;;;;;;1.67;0.70;;;;;;;-3.68;85.03;99240.45;1722219;81;21497;-43
2022/01/18 08:12:17;;;;;;;4.15;1.00;;;;;;;-3.75;84.85;99231.67;1718893;81;21060;-37
2022/01/18 08:14:46;;;;;;;1.05;0.68;;;;;;;-3.79;85.29;99234.04;1708137;81;21388;-37
2022/01/18 08:17:13;;;;;;;4.08;1.35;;;;;;;-3.85;85.10;99248.72;1716770;81;21421;-36
2022/01/18 08:19:40;;;;;;;0.98;0.40;;;;;;;-3.85;85.70;99265.34;1726682;81;20985;-35
2022/01/18 08:22:07;;;;;;;2.20;0.95;;;;;;;-3.85;85.14;99272.13;1731518;81;21046;-35
2022/01/18 08:24:35;;;;;;;2.22;0.60;;;;;;;-3.86;85.27;99284.45;1723182;81;21044;-36
2022/01/18 08:27:03;;;;;;;1.02;0.60;;;;;;;-3.88;85.62;99291.20;1723222;81;21624;-42
2022/01/18 08:29:36;;;;;;;2.27;1.22;;;;;;;-3.88;86.43;99284.80;1730593;81;20974;-36
2022/01/18 08:32:17;;;;;;;3.45;1.67;;;;;;;-3.88;87.00;99292.47;1722080;81;21702;-42
2022/01/18 08:35:03;;;;;;;4.85;1.98;;;;;;;-3.88;87.68;99286.95;1728286;81;21408;-36
2022/01/18 08:37:32;;;;;;;1.12;0.80;;;;;;;-3.82;87.77;99287.61;1732653;81;21702;-42
2022/01/18 08:40:06;;;;;;;1.47;1.00;;;;;;;-3.78;87.69;99304.39;1726691;81;21372;-42
2022/01/18 08:42:33;;;;;;;2.00;1.00;;;;;;;-3.70;87.27;99306.41;1726621;82;21040;-36
2022/01/18 08:45:07;;;;;;;1.90;1.20;;;;;;;-3.63;87.37;99300.72;1713923;82;21045;-42
2022/01/18 08:47:34;;;;;;;4.08;1.57;;;;;;;-3.54;88.07;99293.03;1705549;82;21121;-36
2022/01/18 08:50:01;;;;;;;7.28;1.80;;;;;;;-3.43;87.40;99295.98;1712232;82;20958;-36
2022/01/18 08:52:27;;;;;;;8.05;2.15;;;;;;;-3.34;87.58;99282.29;1709539;82;21057;-36
2022/01/18 08:54:54;;;;;;;1.20;0.70;;;;;;;-3.25;88.35;99298.01;1712563;82;20967;-36
2022/01/18 08:57:21;;;;;;;2.10;0.93;;;;;;;-3.16;87.83;99300.44;1714929;82;20999;-36
2022/01/18 08:59:49;;;;;;;1.40;1.00;;;;;;;-3.13;87.07;99305.66;1710119;82;21462;-36
2022/01/18 09:02:16;;;;;;;1.60;1.00;;;;;;;-3.20;87.78;99299.44;1711680;82;21013;-36
2022/01/18 09:04:43;;;;;;;2.52;1.47;;;;;;;-3.25;88.10;99308.62;1711893;82;21019;-42
2022/01/18 09:07:11;;;;;;;6.67;1.47;;;;;;;-3.27;88.14;99305.14;1719364;82;21045;-36
2022/01/18 09:09:40;;;;;;;7.67;1.20;;;;;;;-3.31;88.22;99315.64;1707840;82;20974;-42
2022/01/18 09:12:11;;;;;;;5.70;1.45;;;;;;;-3.37;87.17;99314.53;1711084;81;21035;-35
2022/01/18 09:14:39;;;;;;;1.42;1.32;;;;;;;-3.39;87.51;99309.37;1709314;82;21434;-35
2022/01/18 09:17:06;;;;;;;3.47;1.15;;;;;;;-3.37;86.60;99328.20;1713340;82;21037;-35
2022/01/18 09:19:33;;;;;;;2.40;1.17;;;;;;;-3.35;87.06;99318.92;1707084;82;21053;-36
2022/01/18 09:22:03;;;;;;;1.55;1.10;;;;;;;-3.35;85.80;99339.80;1712983;82;21039;-36
2022/01/18 09:24:28;;;;;;;1.40;0.80;;;;;;;-3.38;85.85;99331.57;1713616;82;21074;-40
2022/01/18 09:26:55;;;;;;;3.20;1.10;;;;;;;-3.39;85.97;99327.69;1713819;82;21068;-36
2022/01/18 09:29:28;;;;;;;0.85;0.78;;;;;;;-3.43;86.12;99320.28;1717897;82;21065;-36
2022/01/18 09:32:01;;;;;;;1.57;0.47;;;;;;;-3.47;86.45;99327.39;1720592;82;21386;-37
2022/01/18 09:34:28;;;;;;;1.15;0.85;;;;;;;-3.52;85.55;99334.87;1711088;82;20995;-36
2022/01/18 09:37:07;;;;;;;2.90;1.27;;;;;;;-3.53;85.66;99333.13;1709869;82;21031;-36
2022/01/18 09:39:34;;;;;;;6.05;1.50;;;;;;;-3.52;85.11;99334.87;1708548;82;21010;-36
2022/01/18 09:42:02;;;;;;;1.60;1.02;;;;;;;-3.53;84.83;99351.03;1710636;82;20990;-36
2022/01/18 09:44:30;;;;;;;5.37;0.85;;;;;;;-3.54;85.75;99338.16;1706139;82;21021;-37
2022/01/18 09:46:56;;;;;;;3.33;1.37;;;;;;;-3.52;86.76;99357.02;1727171;81;21683;-36
2022/01/18 09:49:29;;;;;;;3.80;1.30;;;;;;;-3.52;85.78;99360.84;1723341;81;21819;-37
2022/01/18 09:51:55;;;;;;;2.10;1.00;;;;;;;-3.52;85.21;99341.67;1731253;82;21104;-36
2022/01/18 09:54:23;;;;;;;2.45;0.88;;;;;;;-3.45;85.08;99353.88;1738396;81;21080;-36
2022/01/18 09:56:49;;;;;;;1.98;1.22;;;;;;;-3.38;83.98;99373.78;1729405;81;21378;-36
2022/01/18 09:59:16;;;;;;;1.52;1.15;;;;;;;-3.29;83.19;99362.65;1715297;81;21028;-36
2022/01/18 10:01:44;;;;;;;2.98;1.00;;;;;;;-3.19;83.17;99363.87;1722187;81;21991;-37
2022/01/18 10:04:33;;;;;;;1.82;1.40;;;;;;;-3.07;82.49;99365.66;1723741;81;21028;-36
2022/01/18 10:07:03;;;;;;;3.42;1.05;;;;;;;-3.03;81.86;99379.02;1703426;81;21088;-43
2022/01/18 10:09:31;;;;;;;4.03;1.50;;;;;;;-3.08;81.95;99395.00;1720235;81;21116;-44
2022/01/18 10:12:10;;;;;;;2.00;0.98;;;;;;;-3.09;81.35;99387.73;1717666;81;21087;-36
2022/01/18 10:15:03;;;;;;;1.00;0.82;;;;;;;-3.09;81.24;99385.59;1725064;81;21091;-42
2022/01/18 10:17:38;;;;;;;0.88;0.85;;;;;;;-3.07;81.39;99387.83;1723298;81;21088;-42
2022/01/18 10:20:18;;;;;;;3.85;0.70;;;;;;;-2.99;80.34;99394.11;1719549;81;20961;-42
2022/01/18 10:22:49;;;;;;;3.25;1.12;;;;;;;-2.88;80.28;99383.87;1722113;81;21060;-43
2022/01/18 10:25:21;;;;;;;2.42;0.85;;;;;;;-2.67;79.13;99397.89;1718761;81;21040;-43
2022/01/18 10:28:29;;;;;;;2.08;1.20;;;;;;;-2.55;78.14;99386.86;1716981;81;21093;-43
2022/01/18 10:31:55;;;;;;;3.92;1.45;;;;;;;-2.54;77.72;99405.66;1716100;81;21402;-43
2022/01/18 10:37:28;;;;;;;2.70;1.47;;;;;;;-2.19;78.20;99406.55;1685540;83;21041;-43
2022/01/18 10:40:14;;;;;;;3.17;1.30;;;;;;;-2.12;77.32;99409.34;1666200;85;21536;-37
2022/01/18 10:42:51;;;;;;;3.08;1.65;;;;;;;-2.13;77.40;99430.25;1684123;83;21018;-36
2022/01/18 10:45:34;;;;;;;5.65;1.72;;;;;;;-2.23;78.22;99427.75;1680143;83;21431;-37
2022/01/18 10:48:10;;;;;;;1.30;1.02;;;;;;;-2.31;79.44;99438.55;1647199;85;21101;-43
2022/01/18 10:50:38;;;;;;;1.77;1.02;;;;;;;-2.30;80.03;99448.84;1661161;82;21017;-43
2022/01/18 10:53:16;;;;;;;3.27;1.55;;;;;;;-2.41;79.74;99444.59;1655552;84;21215;-42
2022/01/18 10:55:44;;;;;;;4.05;1.30;;;;;;;-2.53;81.17;99441.98;1657038;85;21078;-42
2022/01/18 10:58:16;;;;;;;3.92;1.65;;;;;;;-2.57;82.93;99453.78;1664383;84;21626;-44
2022/01/18 11:00:46;;;;;;;2.33;1.10;;;;;;;-2.55;81.70;99457.67;1654822;84;21050;-36
2022/01/18 11:03:13;;;;;;;4.53;2.37;;;;;;;-2.62;81.40;99470.66;1656200;84;21512;-36
2022/01/18 11:05:43;;;;;;;3.62;2.05;;;;;;;-2.63;81.70;99474.45;1660181;84;21376;-36
2022/01/18 11:08:10;;;;;;;9.35;3.72;;;;;;;-2.55;80.68;99486.75;1657623;84;21747;-43
2022/01/18 11:10:43;;;;;;;3.17;2.12;;;;;;;-2.31;79.33;99474.02;1637903;86;21495;-43
2022/01/18 11:13:17;;;;;;;3.45;1.22;;;;;;;-2.24;77.82;99487.52;1682810;82;21302;-36
2022/01/18 11:15:45;;;;;;;5.22;1.57;;;;;;;-2.45;76.55;99476.44;1704695;82;21517;-37
2022/01/18 11:18:31;;;;;;;5.20;1.80;;;;;;;-2.62;78.01;99481.31;1704324;82;21675;-43
2022/01/18 11:21:02;;;;;;;4.55;2.62;;;;;;;-2.49;78.05;99478.02;1707451;82;20990;-36
2022/01/18 11:23:30;;;;;;;3.75;0.65;;;;;;;-2.07;75.88;99485.59;1714370;82;21209;-43
2022/01/18 11:25:58;;;;;;;4.80;1.52;;;;;;;-1.94;72.13;99494.19;1712740;82;21401;-43
2022/01/18 11:28:34;;;;;;;3.35;1.75;;;;;;;-1.98;71.88;99479.91;1708001;82;21373;-36
2022/01/18 11:31:00;;;;;;;1.85;1.15;;;;;;;-2.15;73.58;99491.69;1702458;82;20977;-43
2022/01/18 11:33:33;;;;;;;2.98;1.80;;;;;;;-2.31;75.08;99494.92;1707193;82;21025;-37
2022/01/18 11:36:08;;;;;;;4.35;1.52;;;;;;;-2.46;77.15;99488.78;1704801;82;21308;-43
2022/01/18 11:38:50;;;;;;;3.62;1.02;;;;;;;-2.54;78.42;99517.08;1709078;82;21148;-43
2022/01/18 11:41:49;;;;;;;1.25;0.90;;;;;;;-2.58;80.42;99539.53;1682111;82;21869;-42
2022/01/18 11:44:19;;;;;;;1.35;1.15;;;;;;;-2.71;82.13;99522.81;1713571;81;21041;-37
2022/01/18 11:46:50;;;;;;;3.00;1.95;;;;;;;-2.86;83.73;99541.38;1718260;81;21454;-37
2022/01/18 11:49:32;;;;;;;9.35;1.98;;;;;;;-2.81;84.41;99539.47;1728931;81;21655;-36
2022/01/18 11:52:04;;;;;;;2.35;1.37;;;;;;;-2.70;83.14;99532.23;1688576;83;21069;-37
2022/01/18 11:54:56;;;;;;;2.80;1.45;;;;;;;-2.62;82.23;99551.33;1727663;81;21032;-37
2022/01/18 11:57:27;;;;;;;3.62;1.85;;;;;;;-2.63;81.50;99556.41;1727263;81;21025;-37
2022/01/18 12:00:07;;;;;;;4.28;1.75;;;;;;;-2.70;82.11;99563.84;1724687;81;21068;-43
2022/01/18 12:02:41;;;;;;;3.33;1.37;;;;;;;-2.77;82.71;99557.13;1700342;81;21638;-37
2022/01/18 12:05:19;;;;;;;1.50;1.12;;;;;;;-2.82;81.70;99572.30;1722167;81;21535;-37
2022/01/18 12:07:52;;;;;;;4.87;1.50;;;;;;;-2.86;80.16;99585.77;1723088;81;21077;-36
2022/01/18 12:10:34;;;;;;;2.12;1.55;;;;;;;-2.76;79.19;99590.88;1716367;81;21025;-37
2022/01/18 12:13:10;;;;;;;2.15;1.22;;;;;;;-2.66;77.60;99583.19;1717920;82;21020;-36
2022/01/18 12:15:46;;;;;;;1.72;1.22;;;;;;;-2.61;76.23;99595.74;1723841;81;20992;-36
2022/01/18 12:18:20;;;;;;;2.22;1.55;;;;;;;-2.63;76.02;99599.94;1721115;81;21902;-37
2022/01/18 12:20:51;;;;;;;1.52;1.02;;;;;;;-2.68;76.60;99592.94;1718124;82;21504;-36
2022/01/18 12:23:40;;;;;;;2.17;1.40;;;;;;;-2.67;76.99;99600.20;1721416;81;21017;-36
2022/01/18 12:26:29;;;;;;;2.05;1.30;;;;;;;-2.63;75.85;99608.50;1721722;81;21427;-37
2022/01/18 12:29:22;;;;;;;5.62;1.17;;;;;;;-2.62;75.00;99611.93;1703196;82;21013;-36
2022/01/18 12:34:48;;;;;;;2.60;1.30;;;;;;;-2.74;74.01;99600.77;1716214;81;21004;-37
2022/01/18 12:37:17;;;;;;;3.35;1.37;;;;;;;-2.79;74.16;99612.09;1719494;82;21048;-39
2022/01/18 12:39:54;;;;;;;;;;;;;;;-2.81;74.38;99620.53;1727340;81;21016;-37
2022/01/18 12:45:26;;;;;;;3.98;1.60;;;;;;;-2.90;75.13;99635.49;1711777;82;21144;-43
2022/01/18 12:48:07;;;;;;;3.20;1.35;;;;;;;-2.90;75.86;99634.21;1699208;82;21006;-42
2022/01/18 12:50:40;;;;;;;5.50;1.42;;;;;;;-2.91;76.34;99651.67;1701956;82;21045;-45
2022/01/18 12:53:23;;;;;;;6.60;1.90;;;;;;;-2.96;77.09;99655.30;1704359;82;21081;-37
2022/01/18 12:55:57;;;;;;;4.20;1.47;;;;;;;-3.00;76.67;99656.88;1703192;82;21012;-37
2022/01/18 12:58:38;;;;;;;4.60;1.80;;;;;;;-3.01;77.02;99667.05;1707112;82;21407;-37
2022/01/18 13:01:17;;;;;;;3.83;1.50;;;;;;;-3.04;77.06;99673.30;1709146;82;21544;-37
2022/01/18 13:03:54;;;;;;;4.12;1.55;;;;;;;-3.10;75.32;99671.34;1707552;82;21387;-37
2022/01/18 13:06:23;;;;;;;4.05;1.50;;;;;;;-3.18;74.33;99690.62;1708334;82;20997;-37
2022/01/18 13:08:59;;;;;;;2.37;1.45;;;;;;;-3.23;74.18;99690.41;1708731;82;21498;-37
2022/01/18 13:11:32;;;;;;;5.95;1.70;;;;;;;-3.23;73.95;99690.41;1712514;82;21596;-37
2022/01/18 13:14:09;;;;;;;4.45;1.52;;;;;;;-3.16;73.29;99701.78;1677794;83;21450;-37
2022/01/18 13:27:31;;;;;;;4.00;1.25;;;;;;;-2.90;68.28;99708.05;1679409;83;21612;-37
2022/01/18 13:30:08;;;;;;;;;;;;;;;-2.88;67.25;99720.94;1633960;86;21007;-37
2022/01/18 13:32:36;;;;;;;2.00;1.00;;;;;;;-2.89;65.41;99730.72;1656293;84;20109;-43
2022/01/18 13:35:05;;;;;;;3.17;1.12;;;;;;;-2.94;65.45;99718.98;1663108;84;21022;-36
2022/01/18 13:37:33;;;;;;;3.37;1.30;;;;;;;-2.98;65.47;99723.08;1667919;84;21562;-37
2022/01/18 13:40:15;;;;;;;1.70;1.30;;;;;;;-3.01;65.51;99733.61;1647082;85;21528;-43
2022/01/18 13:42:49;;;;;;;2.52;1.50;;;;;;;-3.04;65.84;99741.13;1672865;84;21040;-43
2022/01/18 13:45:26;;;;;;;3.08;1.32;;;;;;;-3.10;65.38;99725.50;1675209;84;21616;-43
2022/01/18 13:48:06;;;;;;;4.78;1.25;;;;;;;-3.14;66.21;99743.66;1644686;84;21562;-43
2022/01/18 13:50:55;;;;;;;1.42;0.90;;;;;;;-3.19;66.26;99750.25;1641099;84;21494;-43
2022/01/18 13:53:28;;;;;;;2.50;0.90;;;;;;;-3.22;65.88;99746.30;1667361;84;22049;-44
2022/01/18 13:56:09;;;;;;;3.98;1.45;;;;;;;-3.25;65.99;99762.77;1661965;84;21431;-43
2022/01/18 13:58:44;;;;;;;4.28;1.32;;;;;;;-3.30;65.81;99765.14;1663076;84;21005;-43
2022/01/18 14:01:22;;;;;;;1.07;0.80;;;;;;;-3.32;66.46;99764.58;1659047;85;21013;-44
2022/01/18 14:03:59;;;;;;;4.78;1.07;;;;;;;-3.34;66.82;99771.31;1661999;85;21009;-42
2022/01/18 14:06:38;;;;;;;1.52;0.93;;;;;;;-3.37;66.65;99769.47;1661575;85;21471;-35
2022/01/18 14:09:09;;;;;;;1.87;0.62;;;;;;;-3.40;66.32;99783.41;1662114;85;21008;-37
2022/01/18 14:11:37;;;;;;;6.30;1.07;;;;;;;-3.43;66.29;99776.86;1667619;85;21508;-36
2022/01/18 14:14:21;;;;;;;8.78;1.57;;;;;;;-3.45;66.01;99773.36;1681601;84;21575;-37
2022/01/18 14:16:57;;;;;;;2.80;1.35;;;;;;;-3.45;66.24;99776.33;1662260;85;21080;-37
2022/01/18 14:19:34;;;;;;;3.30;1.00;;;;;;;-3.46;66.07;99775.86;1662236;85;21652;-37
2022/01/18 14:22:03;;;;;;;2.22;1.25;;;;;;;-3.46;66.02;99786.09;1653760;85;21077;-37
2022/01/18 14:24:39;;;;;;;2.37;1.22;;;;;;;-3.47;66.41;99787.77;1663181;85;21104;-36
2022/01/18 14:27:09;;;;;;;3.67;1.30;;;;;;;-3.46;66.56;99791.20;1662828;85;21536;-38
2022/01/18 14:29:46;;;;;;;3.15;1.45;;;;;;;-3.47;66.34;99807.36;1671821;84;21049;-43
2022/01/18 14:32:15;;;;;;;3.25;1.37;;;;;;;-3.50;66.37;99799.99;1663680;84;21478;-43
2022/01/18 14:34:47;;;;;;;2.20;1.15;;;;;;;-3.52;66.42;99804.58;1664529;85;21041;-42
2022/01/18 14:37:13;;;;;;;2.87;1.20;;;;;;;-3.56;66.93;99817.60;1664640;84;21128;-37
2022/01/18 14:40:00;;;;;;;1.82;0.62;;;;;;;-3.61;67.78;99825.45;1669232;85;21049;-42
2022/01/18 14:42:40;;;;;;;9.60;0.93;;;;;;;-3.66;67.94;99837.53;1664061;85;21564;-42
2022/01/18 14:45:30;;;;;;;1.47;1.10;;;;;;;-3.69;68.11;99834.44;1671944;85;21105;-36
2022/01/18 14:47:37;;;;;;;2.52;0.90;;;;;;;-3.70;68.68;99842.05;1668693;84;21085;-44
2022/01/18 14:50:07;;;;;;;1.10;1.00;;;;;;;-3.70;68.62;99848.44;1672799;84;21551;-37
